sensor_id;sensor_type;location;lat;lon;timestamp;temperature;humidity
4604;DHT22;2314;48.272;11.562;2023-03-14T00:02:13;9.00;99.90
4604;DHT22;2314;48.272;11.562;2023-03-14T00:04:40;9.10;99.90
4604;DHT22;2314;48.272;11.562;2023-03-14T00:07:07;9.10;99.90
4604;DHT22;2314;48.272;11.562;2023-03-14T00:09:36;9.10;99.90
4604;DHT22;2314;48.272;11.562;2023-03-14T00:12:04;9.20;99.90
4604;DHT22;2314;48.272;11.562;2023-03-14T00:14:32;9.20;99.90
4604;DHT22;2314;48.272;11.562;2023-03-14T00:17:01;9.20;99.90
4604;DHT22;2314;48.272;11.562;2023-03-14T00:19:27;9.20;99.90
4604;DHT22;2314;48.272;11.562;2023-03-14T00:21:54;9.20;99.90
4604;DHT22;2314;48.272;11.562;2023-03-14T00:24:21;9.20;99.90
4604;DHT22;2314;48.272;11.562;2023-03-14T00:26:48;9.20;99.90
4604;DHT22;2314;48.272;11.562;2023-03-14T00:29:15;9.30;99.90
4604;DHT22;2314;48.272;11.562;2023-03-14T00:31:42;9.30;99.90
4604;DHT22;2314;48.272;11.562;2023-03-14T00:34:11;9.40;99.90
4604;DHT22;2314;48.272;11.562;2023-03-14T00:36:37;9.50;99.90
4604;DHT22;2314;48.272;11.562;2023-03-14T00:39:04;9.70;99.90
4604;DHT22;2314;48.272;11.562;2023-03-14T00:41:31;9.80;99.90
4604;DHT22;2314;48.272;11.562;2023-03-14T00:43:58;9.80;99.90
4604;DHT22;2314;48.272;11.562;2023-03-14T00:46:25;9.80;99.90
4604;DHT22;2314;48.272;11.562;2023-03-14T00:48:52;9.80;99.90
4604;DHT22;2314;48.272;11.562;2023-03-14T00:51:20;9.70;99.90
4604;DHT22;2314;48.272;11.562;2023-03-14T00:53:47;9.70;99.90
4604;DHT22;2314;48.272;11.562;2023-03-14T00:56:14;9.70;99.90
4604;DHT22;2314;48.272;11.562;2023-03-14T00:58:42;9.80;99.90
4604;DHT22;2314;48.272;11.562;2023-03-14T01:01:12;9.80;99.90
4604;DHT22;2314;48.272;11.562;2023-03-14T01:03:39;9.90;99.90
4604;DHT22;2314;48.272;11.562;2023-03-14T01:06:09;9.90;99.90
4604;DHT22;2314;48.272;11.562;2023-03-14T01:08:38;9.90;99.90
4604;DHT22;2314;48.272;11.562;2023-03-14T01:11:07;9.90;99.90
4604;DHT22;2314;48.272;11.562;2023-03-14T01:13:35;9.90;99.90
4604;DHT22;2314;48.272;11.562;2023-03-14T01:16:03;9.90;99.90
4604;DHT22;2314;48.272;11.562;2023-03-14T01:18:32;9.90;99.90
4604;DHT22;2314;48.272;11.562;2023-03-14T01:21:00;9.80;99.90
4604;DHT22;2314;48.272;11.562;2023-03-14T01:23:28;9.90;99.90
4604;DHT22;2314;48.272;11.562;2023-03-14T01:25:56;9.80;99.90
4604;DHT22;2314;48.272;11.562;2023-03-14T01:28:23;9.70;99.90
4604;DHT22;2314;48.272;11.562;2023-03-14T01:30:50;9.70;99.90
4604;DHT22;2314;48.272;11.562;2023-03-14T01:33:17;9.60;99.90
4604;DHT22;2314;48.272;11.562;2023-03-14T01:35:44;9.60;99.90
4604;DHT22;2314;48.272;11.562;2023-03-14T01:38:11;9.60;99.90
4604;DHT22;2314;48.272;11.562;2023-03-14T01:40:42;9.50;99.90
4604;DHT22;2314;48.272;11.562;2023-03-14T01:43:17;9.50;99.90
4604;DHT22;2314;48.272;11.562;2023-03-14T01:46:25;9.40;99.90
4604;DHT22;2314;48.272;11.562;2023-03-14T01:48:58;9.30;99.90
4604;DHT22;2314;48.272;11.562;2023-03-14T01:51:31;9.30;99.90
4604;DHT22;2314;48.272;11.562;2023-03-14T01:54:09;9.30;99.90
4604;DHT22;2314;48.272;11.562;2023-03-14T01:56:40;9.20;99.90
4604;DHT22;2314;48.272;11.562;2023-03-14T01:59:10;9.10;99.90
4604;DHT22;2314;48.272;11.562;2023-03-14T02:01:40;9.00;99.90
4604;DHT22;2314;48.272;11.562;2023-03-14T02:04:10;8.90;99.90
4604;DHT22;2314;48.272;11.562;2023-03-14T02:06:47;8.80;99.90
4604;DHT22;2314;48.272;11.562;2023-03-14T02:09:16;8.80;99.90
4604;DHT22;2314;48.272;11.562;2023-03-14T02:11:44;8.70;99.90
4604;DHT22;2314;48.272;11.562;2023-03-14T02:14:21;8.70;99.90
4604;DHT22;2314;48.272;11.562;2023-03-14T02:16:53;8.60;99.90
4604;DHT22;2314;48.272;11.562;2023-03-14T02:19:29;8.60;99.90
4604;DHT22;2314;48.272;11.562;2023-03-14T02:22:15;8.60;99.90
4604;DHT22;2314;48.272;11.562;2023-03-14T02:24:48;8.60;99.90
4604;DHT22;2314;48.272;11.562;2023-03-14T02:27:20;8.60;99.90
4604;DHT22;2314;48.272;11.562;2023-03-14T02:29:53;8.50;99.90
4604;DHT22;2314;48.272;11.562;2023-03-14T02:32:22;8.60;99.90
4604;DHT22;2314;48.272;11.562;2023-03-14T02:34:53;8.60;99.90
4604;DHT22;2314;48.272;11.562;2023-03-14T02:37:25;8.50;99.90
4604;DHT22;2314;48.272;11.562;2023-03-14T02:39:55;8.50;99.90
4604;DHT22;2314;48.272;11.562;2023-03-14T02:42:23;8.50;99.90
4604;DHT22;2314;48.272;11.562;2023-03-14T02:44:52;8.50;99.90
4604;DHT22;2314;48.272;11.562;2023-03-14T02:47:26;8.40;99.90
4604;DHT22;2314;48.272;11.562;2023-03-14T02:50:00;8.40;99.90
4604;DHT22;2314;48.272;11.562;2023-03-14T02:52:28;8.40;99.90
4604;DHT22;2314;48.272;11.562;2023-03-14T02:54:55;8.30;99.90
4604;DHT22;2314;48.272;11.562;2023-03-14T02:57:24;8.30;99.90
4604;DHT22;2314;48.272;11.562;2023-03-14T02:59:51;8.30;99.90
4604;DHT22;2314;48.272;11.562;2023-03-14T03:02:18;8.30;99.90
4604;DHT22;2314;48.272;11.562;2023-03-14T03:04:45;8.30;99.90
4604;DHT22;2314;48.272;11.562;2023-03-14T03:07:12;8.30;99.90
4604;DHT22;2314;48.272;11.562;2023-03-14T03:09:38;8.20;99.90
4604;DHT22;2314;48.272;11.562;2023-03-14T03:12:06;8.20;99.90
4604;DHT22;2314;48.272;11.562;2023-03-14T03:14:34;8.20;99.90
4604;DHT22;2314;48.272;11.562;2023-03-14T03:17:03;8.20;99.90
4604;DHT22;2314;48.272;11.562;2023-03-14T03:19:30;8.20;99.90
4604;DHT22;2314;48.272;11.562;2023-03-14T03:21:57;8.30;99.90
4604;DHT22;2314;48.272;11.562;2023-03-14T03:24:25;8.30;99.90
4604;DHT22;2314;48.272;11.562;2023-03-14T03:26:52;8.30;99.90
4604;DHT22;2314;48.272;11.562;2023-03-14T03:29:19;8.30;99.90
4604;DHT22;2314;48.272;11.562;2023-03-14T03:31:48;8.40;99.90
4604;DHT22;2314;48.272;11.562;2023-03-14T03:34:15;8.40;99.90
4604;DHT22;2314;48.272;11.562;2023-03-14T03:36:42;8.30;99.90
4604;DHT22;2314;48.272;11.562;2023-03-14T03:39:09;8.40;99.90
4604;DHT22;2314;48.272;11.562;2023-03-14T03:41:36;8.40;99.90
4604;DHT22;2314;48.272;11.562;2023-03-14T03:44:03;8.30;99.90
4604;DHT22;2314;48.272;11.562;2023-03-14T03:46:31;8.30;99.90
4604;DHT22;2314;48.272;11.562;2023-03-14T03:49:00;8.30;99.90
4604;DHT22;2314;48.272;11.562;2023-03-14T03:51:27;8.20;99.90
4604;DHT22;2314;48.272;11.562;2023-03-14T03:53:55;8.30;99.90
4604;DHT22;2314;48.272;11.562;2023-03-14T03:56:22;8.20;99.90
4604;DHT22;2314;48.272;11.562;2023-03-14T03:58:50;8.20;99.90
4604;DHT22;2314;48.272;11.562;2023-03-14T04:01:17;8.20;99.90
4604;DHT22;2314;48.272;11.562;2023-03-14T04:03:44;8.20;99.90
4604;DHT22;2314;48.272;11.562;2023-03-14T04:06:13;8.20;99.90
4604;DHT22;2314;48.272;11.562;2023-03-14T04:08:40;8.20;99.90
4604;DHT22;2314;48.272;11.562;2023-03-14T04:11:08;8.20;99.90
4604;DHT22;2314;48.272;11.562;2023-03-14T04:13:35;8.20;99.90
4604;DHT22;2314;48.272;11.562;2023-03-14T04:16:02;8.20;99.90
4604;DHT22;2314;48.272;11.562;2023-03-14T04:18:30;8.20;99.90
4604;DHT22;2314;48.272;11.562;2023-03-14T04:20:57;8.20;99.90
4604;DHT22;2314;48.272;11.562;2023-03-14T04:23:26;8.20;99.90
4604;DHT22;2314;48.272;11.562;2023-03-14T04:25:53;8.10;99.90
4604;DHT22;2314;48.272;11.562;2023-03-14T04:28:20;8.10;99.90
4604;DHT22;2314;48.272;11.562;2023-03-14T04:30:47;8.10;99.90
4604;DHT22;2314;48.272;11.562;2023-03-14T04:33:14;8.00;99.90
4604;DHT22;2314;48.272;11.562;2023-03-14T04:35:42;8.00;99.90
4604;DHT22;2314;48.272;11.562;2023-03-14T04:38:10;8.00;99.90
4604;DHT22;2314;48.272;11.562;2023-03-14T04:40:39;8.00;99.90
4604;DHT22;2314;48.272;11.562;2023-03-14T04:43:07;8.00;99.90
4604;DHT22;2314;48.272;11.562;2023-03-14T04:45:35;8.00;99.90
4604;DHT22;2314;48.272;11.562;2023-03-14T04:48:02;8.00;99.90
4604;DHT22;2314;48.272;11.562;2023-03-14T04:50:29;8.00;99.90
4604;DHT22;2314;48.272;11.562;2023-03-14T04:52:56;8.00;99.90
4604;DHT22;2314;48.272;11.562;2023-03-14T04:55:23;7.90;99.90
4604;DHT22;2314;48.272;11.562;2023-03-14T04:57:51;8.00;99.90
4604;DHT22;2314;48.272;11.562;2023-03-14T05:00:19;8.00;99.90
4604;DHT22;2314;48.272;11.562;2023-03-14T05:02:46;7.90;99.90
4604;DHT22;2314;48.272;11.562;2023-03-14T05:05:13;7.90;99.90
4604;DHT22;2314;48.272;11.562;2023-03-14T05:07:40;7.90;99.90
4604;DHT22;2314;48.272;11.562;2023-03-14T05:10:08;7.80;99.90
4604;DHT22;2314;48.272;11.562;2023-03-14T05:12:36;7.80;99.90
4604;DHT22;2314;48.272;11.562;2023-03-14T05:15:05;7.80;99.90
4604;DHT22;2314;48.272;11.562;2023-03-14T05:17:34;7.80;99.90
4604;DHT22;2314;48.272;11.562;2023-03-14T05:20:01;7.80;99.90
4604;DHT22;2314;48.272;11.562;2023-03-14T05:22:33;7.70;99.90
4604;DHT22;2314;48.272;11.562;2023-03-14T05:25:00;7.70;99.90
4604;DHT22;2314;48.272;11.562;2023-03-14T05:27:27;7.70;99.90
4604;DHT22;2314;48.272;11.562;2023-03-14T05:29:54;7.70;99.90
4604;DHT22;2314;48.272;11.562;2023-03-14T05:32:22;7.70;99.90
4604;DHT22;2314;48.272;11.562;2023-03-14T05:34:49;7.70;99.90
4604;DHT22;2314;48.272;11.562;2023-03-14T05:37:16;7.70;99.90
4604;DHT22;2314;48.272;11.562;2023-03-14T05:39:43;7.70;99.90
4604;DHT22;2314;48.272;11.562;2023-03-14T05:42:10;7.70;99.90
4604;DHT22;2314;48.272;11.562;2023-03-14T05:44:37;7.60;99.90
4604;DHT22;2314;48.272;11.562;2023-03-14T05:47:04;7.60;99.90
4604;DHT22;2314;48.272;11.562;2023-03-14T05:49:32;7.60;99.90
4604;DHT22;2314;48.272;11.562;2023-03-14T05:51:59;7.60;99.90
4604;DHT22;2314;48.272;11.562;2023-03-14T05:54:26;7.60;99.90
4604;DHT22;2314;48.272;11.562;2023-03-14T05:56:53;7.50;99.90
4604;DHT22;2314;48.272;11.562;2023-03-14T05:59:20;7.50;99.90
4604;DHT22;2314;48.272;11.562;2023-03-14T06:01:47;7.50;99.90
4604;DHT22;2314;48.272;11.562;2023-03-14T06:04:14;7.60;99.90
4604;DHT22;2314;48.272;11.562;2023-03-14T06:06:42;7.60;99.90
4604;DHT22;2314;48.272;11.562;2023-03-14T06:09:09;7.60;99.90
4604;DHT22;2314;48.272;11.562;2023-03-14T06:11:36;7.70;99.90
4604;DHT22;2314;48.272;11.562;2023-03-14T06:14:03;7.70;99.90
4604;DHT22;2314;48.272;11.562;2023-03-14T06:16:30;7.70;99.90
4604;DHT22;2314;48.272;11.562;2023-03-14T06:18:58;7.70;99.90
4604;DHT22;2314;48.272;11.562;2023-03-14T06:21:25;7.70;99.90
4604;DHT22;2314;48.272;11.562;2023-03-14T06:23:53;7.70;99.90
4604;DHT22;2314;48.272;11.562;2023-03-14T06:26:20;7.70;99.90
4604;DHT22;2314;48.272;11.562;2023-03-14T06:28:48;7.80;99.90
4604;DHT22;2314;48.272;11.562;2023-03-14T06:31:16;7.80;99.90
4604;DHT22;2314;48.272;11.562;2023-03-14T06:33:43;7.80;99.90
4604;DHT22;2314;48.272;11.562;2023-03-14T06:36:10;7.90;99.90
4604;DHT22;2314;48.272;11.562;2023-03-14T06:38:37;7.90;99.90
4604;DHT22;2314;48.272;11.562;2023-03-14T06:41:07;8.00;99.90
4604;DHT22;2314;48.272;11.562;2023-03-14T06:43:34;8.10;99.90
4604;DHT22;2314;48.272;11.562;2023-03-14T06:46:01;8.10;99.90
4604;DHT22;2314;48.272;11.562;2023-03-14T06:48:28;8.20;99.90
4604;DHT22;2314;48.272;11.562;2023-03-14T06:50:55;8.30;99.90
4604;DHT22;2314;48.272;11.562;2023-03-14T06:53:22;8.40;99.90
4604;DHT22;2314;48.272;11.562;2023-03-14T06:55:49;8.50;99.90
4604;DHT22;2314;48.272;11.562;2023-03-14T06:58:17;8.50;99.90
4604;DHT22;2314;48.272;11.562;2023-03-14T07:00:45;8.50;99.90
4604;DHT22;2314;48.272;11.562;2023-03-14T07:03:13;8.50;99.90
4604;DHT22;2314;48.272;11.562;2023-03-14T07:05:57;8.50;99.90
4604;DHT22;2314;48.272;11.562;2023-03-14T07:08:41;8.50;99.90
4604;DHT22;2314;48.272;11.562;2023-03-14T07:11:09;8.60;99.90
4604;DHT22;2314;48.272;11.562;2023-03-14T07:13:38;8.60;99.90
4604;DHT22;2314;48.272;11.562;2023-03-14T07:16:06;8.70;99.90
4604;DHT22;2314;48.272;11.562;2023-03-14T07:18:34;8.70;99.90
4604;DHT22;2314;48.272;11.562;2023-03-14T07:21:03;8.80;99.90
4604;DHT22;2314;48.272;11.562;2023-03-14T07:23:30;8.80;99.90
4604;DHT22;2314;48.272;11.562;2023-03-14T07:25:57;8.80;99.90
4604;DHT22;2314;48.272;11.562;2023-03-14T07:28:24;8.80;99.90
4604;DHT22;2314;48.272;11.562;2023-03-14T07:30:54;8.80;99.90
4604;DHT22;2314;48.272;11.562;2023-03-14T07:33:21;8.90;99.90
4604;DHT22;2314;48.272;11.562;2023-03-14T07:35:48;8.90;99.90
4604;DHT22;2314;48.272;11.562;2023-03-14T07:38:16;8.80;99.90
4604;DHT22;2314;48.272;11.562;2023-03-14T07:40:43;8.90;99.90
4604;DHT22;2314;48.272;11.562;2023-03-14T07:43:10;8.90;99.90
4604;DHT22;2314;48.272;11.562;2023-03-14T07:45:37;8.90;99.90
4604;DHT22;2314;48.272;11.562;2023-03-14T07:48:06;8.90;99.90
4604;DHT22;2314;48.272;11.562;2023-03-14T07:50:33;8.90;99.90
4604;DHT22;2314;48.272;11.562;2023-03-14T07:53:00;8.90;99.90
4604;DHT22;2314;48.272;11.562;2023-03-14T07:55:27;8.90;99.90
4604;DHT22;2314;48.272;11.562;2023-03-14T07:57:54;9.00;99.90
4604;DHT22;2314;48.272;11.562;2023-03-14T08:00:21;9.10;99.90
4604;DHT22;2314;48.272;11.562;2023-03-14T08:02:48;9.20;99.90
4604;DHT22;2314;48.272;11.562;2023-03-14T08:05:17;9.30;99.90
4604;DHT22;2314;48.272;11.562;2023-03-14T08:07:44;9.40;99.90
4604;DHT22;2314;48.272;11.562;2023-03-14T08:10:11;9.50;99.90
4604;DHT22;2314;48.272;11.562;2023-03-14T08:12:41;9.50;99.90
4604;DHT22;2314;48.272;11.562;2023-03-14T08:15:09;9.70;99.90
4604;DHT22;2314;48.272;11.562;2023-03-14T08:17:36;9.80;99.90
4604;DHT22;2314;48.272;11.562;2023-03-14T08:20:04;9.90;99.90
4604;DHT22;2314;48.272;11.562;2023-03-14T08:22:35;9.90;99.90
4604;DHT22;2314;48.272;11.562;2023-03-14T08:25:03;10.00;99.90
4604;DHT22;2314;48.272;11.562;2023-03-14T08:27:30;10.00;99.90
4604;DHT22;2314;48.272;11.562;2023-03-14T08:29:58;10.10;99.90
4604;DHT22;2314;48.272;11.562;2023-03-14T08:32:25;10.10;99.90
4604;DHT22;2314;48.272;11.562;2023-03-14T08:34:52;10.20;99.90
4604;DHT22;2314;48.272;11.562;2023-03-14T08:37:19;10.20;99.90
4604;DHT22;2314;48.272;11.562;2023-03-14T08:39:47;10.10;99.90
4604;DHT22;2314;48.272;11.562;2023-03-14T08:42:14;10.20;99.90
4604;DHT22;2314;48.272;11.562;2023-03-14T08:44:41;10.30;99.90
4604;DHT22;2314;48.272;11.562;2023-03-14T08:47:08;10.30;99.90
4604;DHT22;2314;48.272;11.562;2023-03-14T08:49:36;10.40;99.90
4604;DHT22;2314;48.272;11.562;2023-03-14T08:52:03;10.40;99.90
4604;DHT22;2314;48.272;11.562;2023-03-14T08:54:31;10.50;99.90
4604;DHT22;2314;48.272;11.562;2023-03-14T08:56:59;10.50;99.90
4604;DHT22;2314;48.272;11.562;2023-03-14T08:59:26;10.50;99.90
4604;DHT22;2314;48.272;11.562;2023-03-14T09:01:54;10.60;99.90
4604;DHT22;2314;48.272;11.562;2023-03-14T09:04:21;10.60;99.90
4604;DHT22;2314;48.272;11.562;2023-03-14T09:06:48;10.70;99.90
4604;DHT22;2314;48.272;11.562;2023-03-14T09:09:15;10.70;99.90
4604;DHT22;2314;48.272;11.562;2023-03-14T09:11:42;10.90;99.90
4604;DHT22;2314;48.272;11.562;2023-03-14T09:14:11;10.90;99.90
4604;DHT22;2314;48.272;11.562;2023-03-14T09:16:38;11.00;99.90
4604;DHT22;2314;48.272;11.562;2023-03-14T09:19:05;11.10;99.90
4604;DHT22;2314;48.272;11.562;2023-03-14T09:21:32;11.30;99.90
4604;DHT22;2314;48.272;11.562;2023-03-14T09:23:59;11.40;99.90
4604;DHT22;2314;48.272;11.562;2023-03-14T09:26:26;11.50;99.90
4604;DHT22;2314;48.272;11.562;2023-03-14T09:28:53;11.60;99.90
4604;DHT22;2314;48.272;11.562;2023-03-14T09:31:21;11.40;99.90
4604;DHT22;2314;48.272;11.562;2023-03-14T09:33:50;11.30;99.90
4604;DHT22;2314;48.272;11.562;2023-03-14T09:36:17;11.30;99.90
4604;DHT22;2314;48.272;11.562;2023-03-14T09:38:44;11.20;99.90
4604;DHT22;2314;48.272;11.562;2023-03-14T09:41:14;11.30;99.90
4604;DHT22;2314;48.272;11.562;2023-03-14T09:43:44;11.30;99.90
4604;DHT22;2314;48.272;11.562;2023-03-14T09:46:12;11.40;99.90
4604;DHT22;2314;48.272;11.562;2023-03-14T09:48:41;11.40;99.90
4604;DHT22;2314;48.272;11.562;2023-03-14T09:51:13;11.50;99.90
4604;DHT22;2314;48.272;11.562;2023-03-14T09:53:42;11.40;99.90
4604;DHT22;2314;48.272;11.562;2023-03-14T09:56:13;11.40;99.90
4604;DHT22;2314;48.272;11.562;2023-03-14T09:58:45;11.40;99.90
4604;DHT22;2314;48.272;11.562;2023-03-14T10:01:20;11.40;99.90
4604;DHT22;2314;48.272;11.562;2023-03-14T10:03:52;11.50;99.90
4604;DHT22;2314;48.272;11.562;2023-03-14T10:06:27;11.50;99.90
4604;DHT22;2314;48.272;11.562;2023-03-14T10:08:55;11.60;99.90
4604;DHT22;2314;48.272;11.562;2023-03-14T10:11:23;11.50;99.90
4604;DHT22;2314;48.272;11.562;2023-03-14T10:14:04;11.50;99.90
4604;DHT22;2314;48.272;11.562;2023-03-14T10:16:34;11.50;99.90
4604;DHT22;2314;48.272;11.562;2023-03-14T10:19:05;11.60;99.90
4604;DHT22;2314;48.272;11.562;2023-03-14T10:21:37;11.90;99.90
4604;DHT22;2314;48.272;11.562;2023-03-14T10:24:20;12.20;99.90
4604;DHT22;2314;48.272;11.562;2023-03-14T10:26:49;12.60;99.90
4604;DHT22;2314;48.272;11.562;2023-03-14T10:29:17;13.40;99.90
4604;DHT22;2314;48.272;11.562;2023-03-14T10:31:51;13.90;99.90
4604;DHT22;2314;48.272;11.562;2023-03-14T10:34:25;14.20;99.90
4604;DHT22;2314;48.272;11.562;2023-03-14T10:36:55;14.10;99.90
4604;DHT22;2314;48.272;11.562;2023-03-14T10:39:39;13.80;99.90
4604;DHT22;2314;48.272;11.562;2023-03-14T10:42:15;13.40;99.90
4604;DHT22;2314;48.272;11.562;2023-03-14T10:44:49;13.20;99.90
4604;DHT22;2314;48.272;11.562;2023-03-14T10:47:23;13.00;99.90
4604;DHT22;2314;48.272;11.562;2023-03-14T10:49:52;12.70;99.90
4604;DHT22;2314;48.272;11.562;2023-03-14T10:52:21;12.30;99.90
4604;DHT22;2314;48.272;11.562;2023-03-14T10:54:54;12.20;99.90
4604;DHT22;2314;48.272;11.562;2023-03-14T10:57:24;12.30;99.90
4604;DHT22;2314;48.272;11.562;2023-03-14T10:59:52;12.40;99.90
4604;DHT22;2314;48.272;11.562;2023-03-14T11:02:39;12.60;99.90
4604;DHT22;2314;48.272;11.562;2023-03-14T11:05:30;12.60;99.90
4604;DHT22;2314;48.272;11.562;2023-03-14T11:08:04;12.60;99.90
4604;DHT22;2314;48.272;11.562;2023-03-14T11:10:35;12.70;99.90
4604;DHT22;2314;48.272;11.562;2023-03-14T11:13:15;12.80;99.90
4604;DHT22;2314;48.272;11.562;2023-03-14T11:15:51;12.90;99.90
4604;DHT22;2314;48.272;11.562;2023-03-14T11:18:51;12.90;99.90
4604;DHT22;2314;48.272;11.562;2023-03-14T11:21:30;12.80;99.90
4604;DHT22;2314;48.272;11.562;2023-03-14T11:24:16;13.10;99.90
4604;DHT22;2314;48.272;11.562;2023-03-14T11:26:59;13.40;99.90
4604;DHT22;2314;48.272;11.562;2023-03-14T11:29:37;13.70;99.90
4604;DHT22;2314;48.272;11.562;2023-03-14T11:32:13;13.80;99.90
4604;DHT22;2314;48.272;11.562;2023-03-14T11:34:47;13.70;99.90
4604;DHT22;2314;48.272;11.562;2023-03-14T11:37:23;13.50;99.90
4604;DHT22;2314;48.272;11.562;2023-03-14T11:39:59;13.30;99.90
4604;DHT22;2314;48.272;11.562;2023-03-14T11:42:29;13.20;99.90
4604;DHT22;2314;48.272;11.562;2023-03-14T11:44:59;13.10;99.90
4604;DHT22;2314;48.272;11.562;2023-03-14T11:47:30;12.90;99.90
4604;DHT22;2314;48.272;11.562;2023-03-14T11:50:03;12.80;99.90
4604;DHT22;2314;48.272;11.562;2023-03-14T11:52:38;12.60;99.90
4604;DHT22;2314;48.272;11.562;2023-03-14T11:55:11;12.50;99.90
4604;DHT22;2314;48.272;11.562;2023-03-14T11:57:40;12.60;99.90
4604;DHT22;2314;48.272;11.562;2023-03-14T12:00:14;12.60;99.90
4604;DHT22;2314;48.272;11.562;2023-03-14T12:02:48;12.50;99.90
4604;DHT22;2314;48.272;11.562;2023-03-14T12:05:33;12.60;99.90
4604;DHT22;2314;48.272;11.562;2023-03-14T12:11:30;12.70;99.90
4604;DHT22;2314;48.272;11.562;2023-03-14T12:14:00;12.70;99.90
4604;DHT22;2314;48.272;11.562;2023-03-14T12:16:36;12.70;99.90
4604;DHT22;2314;48.272;11.562;2023-03-14T12:19:29;12.60;99.90
4604;DHT22;2314;48.272;11.562;2023-03-14T12:22:22;12.60;99.90
4604;DHT22;2314;48.272;11.562;2023-03-14T12:24:55;12.50;99.90
4604;DHT22;2314;48.272;11.562;2023-03-14T12:27:48;12.60;99.90
4604;DHT22;2314;48.272;11.562;2023-03-14T12:30:33;12.80;99.90
4604;DHT22;2314;48.272;11.562;2023-03-14T12:36:00;13.20;99.90
4604;DHT22;2314;48.272;11.562;2023-03-14T12:38:46;13.50;99.90
4604;DHT22;2314;48.272;11.562;2023-03-14T12:41:24;13.60;99.90
4604;DHT22;2314;48.272;11.562;2023-03-14T12:43:54;13.80;99.90
4604;DHT22;2314;48.272;11.562;2023-03-14T12:46:23;14.00;99.90
4604;DHT22;2314;48.272;11.562;2023-03-14T12:49:03;13.80;99.90
4604;DHT22;2314;48.272;11.562;2023-03-14T12:51:36;13.50;99.90
4604;DHT22;2314;48.272;11.562;2023-03-14T12:54:25;13.20;99.90
4604;DHT22;2314;48.272;11.562;2023-03-14T12:57:14;12.80;99.90
4604;DHT22;2314;48.272;11.562;2023-03-14T12:59:47;12.60;99.90
4604;DHT22;2314;48.272;11.562;2023-03-14T13:02:26;12.40;99.90
4604;DHT22;2314;48.272;11.562;2023-03-14T13:05:05;12.20;99.90
4604;DHT22;2314;48.272;11.562;2023-03-14T13:08:06;12.20;99.90
4604;DHT22;2314;48.272;11.562;2023-03-14T13:10:41;12.40;99.90
4604;DHT22;2314;48.272;11.562;2023-03-14T13:13:21;12.50;99.90
4604;DHT22;2314;48.272;11.562;2023-03-14T13:15:54;12.60;99.90
4604;DHT22;2314;48.272;11.562;2023-03-14T13:18:29;12.50;99.90
4604;DHT22;2314;48.272;11.562;2023-03-14T13:21:03;12.40;99.90
4604;DHT22;2314;48.272;11.562;2023-03-14T13:23:35;12.40;99.90
4604;DHT22;2314;48.272;11.562;2023-03-14T13:26:09;12.30;99.90
4604;DHT22;2314;48.272;11.562;2023-03-14T13:28:39;12.10;99.90
4604;DHT22;2314;48.272;11.562;2023-03-14T13:31:24;11.80;99.90
4604;DHT22;2314;48.272;11.562;2023-03-14T13:34:00;11.40;99.90
4604;DHT22;2314;48.272;11.562;2023-03-14T13:36:29;11.20;99.90
4604;DHT22;2314;48.272;11.562;2023-03-14T13:38:58;11.10;99.90
4604;DHT22;2314;48.272;11.562;2023-03-14T13:41:27;11.10;99.90
4604;DHT22;2314;48.272;11.562;2023-03-14T13:44:03;10.90;99.90
4604;DHT22;2314;48.272;11.562;2023-03-14T13:46:35;10.80;99.90
4604;DHT22;2314;48.272;11.562;2023-03-14T13:49:05;10.60;99.90
4604;DHT22;2314;48.272;11.562;2023-03-14T13:51:38;10.40;99.90
4604;DHT22;2314;48.272;11.562;2023-03-14T13:54:15;10.20;99.90
4604;DHT22;2314;48.272;11.562;2023-03-14T13:56:43;10.10;99.90
4604;DHT22;2314;48.272;11.562;2023-03-14T13:59:27;10.20;99.90
4604;DHT22;2314;48.272;11.562;2023-03-14T14:01:57;10.30;99.90
4604;DHT22;2314;48.272;11.562;2023-03-14T14:04:26;10.30;99.90
4604;DHT22;2314;48.272;11.562;2023-03-14T14:06:57;10.20;99.90
4604;DHT22;2314;48.272;11.562;2023-03-14T14:09:28;10.10;99.90
4604;DHT22;2314;48.272;11.562;2023-03-14T14:12:00;9.90;99.90
4604;DHT22;2314;48.272;11.562;2023-03-14T14:14:34;9.70;99.90
4604;DHT22;2314;48.272;11.562;2023-03-14T14:17:06;9.60;99.90
4604;DHT22;2314;48.272;11.562;2023-03-14T14:19:36;9.40;99.90
4604;DHT22;2314;48.272;11.562;2023-03-14T14:22:05;9.30;99.90
4604;DHT22;2314;48.272;11.562;2023-03-14T14:24:33;9.30;99.90
4604;DHT22;2314;48.272;11.562;2023-03-14T14:27:09;9.20;99.90
4604;DHT22;2314;48.272;11.562;2023-03-14T14:29:42;9.10;99.90
4604;DHT22;2314;48.272;11.562;2023-03-14T14:32:13;9.00;99.90
4604;DHT22;2314;48.272;11.562;2023-03-14T14:34:43;8.70;99.90
4604;DHT22;2314;48.272;11.562;2023-03-14T14:37:22;8.60;99.90
4604;DHT22;2314;48.272;11.562;2023-03-14T14:39:53;8.40;99.90
4604;DHT22;2314;48.272;11.562;2023-03-14T14:42:25;8.30;99.90
4604;DHT22;2314;48.272;11.562;2023-03-14T14:44:57;8.20;99.90
4604;DHT22;2314;48.272;11.562;2023-03-14T14:47:27;8.20;99.90
4604;DHT22;2314;48.272;11.562;2023-03-14T14:49:59;8.20;99.90
4604;DHT22;2314;48.272;11.562;2023-03-14T14:52:37;8.10;99.90
4604;DHT22;2314;48.272;11.562;2023-03-14T14:55:13;8.00;99.90
4604;DHT22;2314;48.272;11.562;2023-03-14T14:57:49;8.00;99.90
4604;DHT22;2314;48.272;11.562;2023-03-14T15:00:21;7.80;99.90
4604;DHT22;2314;48.272;11.562;2023-03-14T15:02:51;7.70;99.90
4604;DHT22;2314;48.272;11.562;2023-03-14T15:05:22;7.70;99.90
4604;DHT22;2314;48.272;11.562;2023-03-14T15:07:50;7.70;99.90
4604;DHT22;2314;48.272;11.562;2023-03-14T15:10:20;7.70;99.90
4604;DHT22;2314;48.272;11.562;2023-03-14T15:12:48;7.70;99.90
4604;DHT22;2314;48.272;11.562;2023-03-14T15:15:15;7.70;99.90
4604;DHT22;2314;48.272;11.562;2023-03-14T15:17:45;7.60;99.90
4604;DHT22;2314;48.272;11.562;2023-03-14T15:20:14;7.50;99.90
4604;DHT22;2314;48.272;11.562;2023-03-14T15:22:42;7.50;99.90
4604;DHT22;2314;48.272;11.562;2023-03-14T15:25:10;7.50;99.90
4604;DHT22;2314;48.272;11.562;2023-03-14T15:27:38;7.50;99.90
4604;DHT22;2314;48.272;11.562;2023-03-14T15:30:10;7.50;99.90
4604;DHT22;2314;48.272;11.562;2023-03-14T15:32:38;7.50;99.90
4604;DHT22;2314;48.272;11.562;2023-03-14T15:35:07;7.40;99.90
4604;DHT22;2314;48.272;11.562;2023-03-14T15:37:35;7.40;99.90
4604;DHT22;2314;48.272;11.562;2023-03-14T15:40:02;7.50;99.90
4604;DHT22;2314;48.272;11.562;2023-03-14T15:42:35;7.50;99.90
4604;DHT22;2314;48.272;11.562;2023-03-14T15:45:03;7.50;99.90
4604;DHT22;2314;48.272;11.562;2023-03-14T15:47:30;7.50;99.90
4604;DHT22;2314;48.272;11.562;2023-03-14T15:49:57;7.60;99.90
4604;DHT22;2314;48.272;11.562;2023-03-14T15:52:26;7.60;99.90
4604;DHT22;2314;48.272;11.562;2023-03-14T15:54:52;7.60;99.90
4604;DHT22;2314;48.272;11.562;2023-03-14T15:57:19;7.60;99.90
4604;DHT22;2314;48.272;11.562;2023-03-14T15:59:46;7.70;99.90
4604;DHT22;2314;48.272;11.562;2023-03-14T16:02:13;7.70;99.90
4604;DHT22;2314;48.272;11.562;2023-03-14T16:04:40;7.70;99.90
4604;DHT22;2314;48.272;11.562;2023-03-14T16:07:07;7.70;99.90
4604;DHT22;2314;48.272;11.562;2023-03-14T16:09:36;7.80;99.90
4604;DHT22;2314;48.272;11.562;2023-03-14T16:12:03;7.80;99.90
4604;DHT22;2314;48.272;11.562;2023-03-14T16:14:32;7.80;99.90
4604;DHT22;2314;48.272;11.562;2023-03-14T16:16:59;7.80;99.90
4604;DHT22;2314;48.272;11.562;2023-03-14T16:19:26;7.80;99.90
4604;DHT22;2314;48.272;11.562;2023-03-14T16:21:54;7.80;99.90
4604;DHT22;2314;48.272;11.562;2023-03-14T16:24:21;7.70;99.90